Time,TemperatureF,DewpointF,PressureIn,WindDirection,WindDirectionDegrees,WindSpeedMPH,WindSpeedGustMPH,Humidity,HourlyPrecipIn,Conditions,Clouds,dailyrainin,SoftwareType,DateUTC
2013-10-02 00:01:00,55.9,55.1,29.97,South,174,0.0,0.0,97,0.00,,,0.00,Wunderground v.1.15,2013-10-02 04:01:00,
2013-10-02 00:02:00,55.8,55.0,29.97,South,174,0.0,0.0,97,0.00,,,0.00,Wunderground v.1.15,2013-10-02 04:02:00,
2013-10-02 00:03:00,55.8,55.0,29.97,South,174,0.0,0.0,97,0.00,,,0.00,Wunderground v.1.15,2013-10-02 04:03:00,
2013-10-02 00:04:00,55.8,55.0,29.97,South,174,0.0,0.0,97,0.00,,,0.00,Wunderground v.1.15,2013-10-02 04:04:00,
2013-10-02 00:09:00,55.8,55.0,29.97,South,174,0.0,0.0,97,0.00,,,0.00,Wunderground v.1.15,2013-10-02 04:09:00,
2013-10-02 00:14:00,55.7,54.9,29.98,South,174,0.0,0.0,97,0.00,,,0.00,Wunderground v.1.15,2013-10-02 04:14:00,
2013-10-02 00:15:00,55.7,54.9,29.98,South,174,0.0,0.0,97,0.00,,,0.00,Wunderground v.1.15,2013-10-02 04:15:00,
2013-10-02 00:20:00,55.5,54.7,29.98,South,174,0.0,0.0,97,0.00,,,0.00,Wunderground v.1.15,2013-10-02 04:20:00,
2013-10-02 00:24:00,55.4,54.6,29.98,South,174,0.0,0.0,97,0.00,,,0.00,Wunderground v.1.15,2013-10-02 04:24:00,
2013-10-02 00:29:00,55.2,54.4,29.98,South,174,0.0,0.0,97,0.00,,,0.00,Wunderground v.1.15,2013-10-02 04:29:00,
2013-10-02 00:34:00,55.0,54.2,29.98,South,174,0.0,0.0,97,0.00,,,0.00,Wunderground v.1.15,2013-10-02 04:34:00,
2013-10-02 00:39:00,54.9,54.1,29.97,South,174,0.0,0.0,97,0.00,,,0.00,Wunderground v.1.15,2013-10-02 04:39:00,
2013-10-02 00:45:00,54.8,54.0,29.98,South,174,0.0,0.0,97,0.00,,,0.00,Wunderground v.1.15,2013-10-02 04:45:00,
2013-10-02 00:50:00,54.6,53.8,29.98,South,175,0.0,0.0,97,0.00,,,0.00,Wunderground v.1.15,2013-10-02 04:50:00,
2013-10-02 00:55:00,54.7,53.9,29.98,South,174,0.0,0.0,97,0.00,,,0.00,Wunderground v.1.15,2013-10-02 04:55:00,
2013-10-02 01:00:00,54.6,53.8,29.98,South,174,0.0,0.0,97,0.00,,,0.00,Wunderground v.1.15,2013-10-02 05:00:00,
2013-10-02 01:05:00,54.6,53.8,29.98,South,174,0.0,0.0,97,0.00,,,0.00,Wunderground v.1.15,2013-10-02 05:05:00,
2013-10-02 01:11:00,54.4,53.6,29.98,South,174,0.0,0.0,97,0.00,,,0.00,Wunderground v.1.15,2013-10-02 05:11:00,
2013-10-02 01:16:00,54.3,53.5,29.98,South,174,0.0,0.0,97,0.00,,,0.00,Wunderground v.1.15,2013-10-02 05:16:00,
2013-10-02 01:21:00,54.2,53.4,29.98,South,175,0.0,0.0,97,0.00,,,0.00,Wunderground v.1.15,2013-10-02 05:21:00,
2013-10-02 01:27:00,54.2,53.4,29.98,South,174,0.0,0.0,97,0.00,,,0.00,Wunderground v.1.15,2013-10-02 05:27:00,
2013-10-02 01:32:00,54.2,53.4,29.98,South,174,0.0,0.0,97,0.00,,,0.00,Wunderground v.1.15,2013-10-02 05:32:00,
2013-10-02 01:37:00,54.1,53.3,29.99,South,174,0.0,0.0,97,0.00,,,0.00,Wunderground v.1.15,2013-10-02 05:37:00,
2013-10-02 01:42:00,54.0,53.2,29.99,South,174,0.0,0.0,97,0.00,,,0.00,Wunderground v.1.15,2013-10-02 05:42:00,
2013-10-02 01:48:00,54.0,53.2,29.99,South,175,0.0,0.0,97,0.00,,,0.00,Wunderground v.1.15,2013-10-02 05:48:00,
2013-10-02 01:53:00,53.9,53.1,29.99,South,174,0.0,0.0,97,0.00,,,0.00,Wunderground v.1.15,2013-10-02 05:53:00,
2013-10-02 01:58:00,53.9,53.1,29.99,South,174,0.0,0.0,97,0.00,,,0.00,Wunderground v.1.15,2013-10-02 05:58:00,
2013-10-02 02:04:00,54.0,53.4,29.99,South,172,0.0,0.0,98,0.00,,,0.00,Wunderground v.1.15,2013-10-02 06:04:00,
2013-10-02 02:09:00,54.1,53.5,29.99,South,172,0.0,0.0,98,0.00,,,0.00,Wunderground v.1.15,2013-10-02 06:09:00,
2013-10-02 02:14:00,54.2,53.6,29.99,ESE,117,0.0,0.0,98,0.00,,,0.00,Wunderground v.1.15,2013-10-02 06:14:00,
2013-10-02 02:19:00,54.2,53.6,29.99,ESE,117,0.0,0.0,98,0.00,,,0.00,Wunderground v.1.15,2013-10-02 06:19:00,
2013-10-02 02:24:00,54.3,53.7,29.99,ESE,118,0.0,0.0,98,0.00,,,0.00,Wunderground v.1.15,2013-10-02 06:24:00,
2013-10-02 02:30:00,54.2,53.4,29.99,ESE,117,0.0,0.0,97,0.00,,,0.00,Wunderground v.1.15,2013-10-02 06:30:00,
2013-10-02 02:35:00,54.1,53.3,29.99,ESE,117,0.0,0.0,97,0.00,,,0.00,Wunderground v.1.15,2013-10-02 06:35:00,
2013-10-02 02:40:00,54.0,53.2,29.99,ESE,115,0.0,0.0,97,0.00,,,0.00,Wunderground v.1.15,2013-10-02 06:40:00,
2013-10-02 02:45:00,53.8,53.0,29.99,ESE,114,0.0,0.0,97,0.00,,,0.00,Wunderground v.1.15,2013-10-02 06:45:00,
2013-10-02 02:51:00,53.7,52.9,29.98,ESE,115,0.0,0.0,97,0.00,,,0.00,Wunderground v.1.15,2013-10-02 06:51:00,
2013-10-02 02:56:00,53.6,52.8,29.98,East,100,0.0,0.0,97,0.00,,,0.00,Wunderground v.1.15,2013-10-02 06:56:00,
2013-10-02 03:01:00,53.4,52.6,29.98,ESE,102,0.0,0.0,97,0.00,,,0.00,Wunderground v.1.15,2013-10-02 07:01:00,
2013-10-02 03:07:00,53.3,52.5,29.98,East,101,0.0,0.0,97,0.00,,,0.00,Wunderground v.1.15,2013-10-02 07:07:00,
2013-10-02 03:12:00,53.4,52.8,29.98,East,101,0.0,0.0,98,0.00,,,0.00,Wunderground v.1.15,2013-10-02 07:12:00,
2013-10-02 03:17:00,53.4,52.8,29.98,ESE,102,0.0,0.0,98,0.00,,,0.00,Wunderground v.1.15,2013-10-02 07:17:00,
2013-10-02 03:22:00,53.3,52.8,29.98,ESE,102,0.0,0.0,98,0.00,,,0.00,Wunderground v.1.15,2013-10-02 07:22:00,
2013-10-02 03:28:00,53.2,52.7,29.98,East,101,0.0,0.0,98,0.00,,,0.00,Wunderground v.1.15,2013-10-02 07:28:00,
2013-10-02 03:33:00,53.2,52.7,29.98,ESE,102,0.0,0.0,98,0.00,,,0.00,Wunderground v.1.15,2013-10-02 07:33:00,
2013-10-02 03:38:00,53.2,52.7,29.98,ESE,102,0.0,0.0,98,0.00,,,0.00,Wunderground v.1.15,2013-10-02 07:38:00,
2013-10-02 03:44:00,53.3,52.8,29.97,ESE,102,0.0,0.0,98,0.00,,,0.00,Wunderground v.1.15,2013-10-02 07:44:00,
2013-10-02 03:49:00,53.3,52.8,29.97,East,101,0.0,0.0,98,0.00,,,0.00,Wunderground v.1.15,2013-10-02 07:49:00,
2013-10-02 03:54:00,53.4,52.8,29.97,ESE,102,0.0,0.0,98,0.00,,,0.00,Wunderground v.1.15,2013-10-02 07:54:00,
2013-10-02 03:59:00,53.5,52.9,29.98,East,101,0.0,0.0,98,0.00,,,0.00,Wunderground v.1.15,2013-10-02 07:59:00,
2013-10-02 04:04:00,53.6,53.0,29.98,East,101,0.0,0.0,98,0.00,,,0.00,Wunderground v.1.15,2013-10-02 08:04:00,
2013-10-02 04:09:00,53.6,53.0,29.98,East,101,0.0,0.0,98,0.00,,,0.00,Wunderground v.1.15,2013-10-02 08:09:00,
2013-10-02 04:14:00,53.7,53.1,29.98,ESE,102,0.0,0.0,98,0.00,,,0.00,Wunderground v.1.15,2013-10-02 08:14:00,
2013-10-02 04:19:00,53.8,53.2,29.98,East,101,0.0,0.0,98,0.00,,,0.00,Wunderground v.1.15,2013-10-02 08:19:00,
2013-10-02 04:25:00,54.1,53.5,29.98,East,101,0.0,0.0,98,0.00,,,0.00,Wunderground v.1.15,2013-10-02 08:25:00,
2013-10-02 04:30:00,54.4,53.8,29.98,East,100,0.0,0.0,98,0.00,,,0.00,Wunderground v.1.15,2013-10-02 08:30:00,
2013-10-02 04:35:00,54.6,54.0,29.98,East,100,0.0,0.0,98,0.00,,,0.00,Wunderground v.1.15,2013-10-02 08:35:00,
2013-10-02 04:41:00,54.8,54.2,29.98,East,100,0.0,0.0,98,0.00,,,0.00,Wunderground v.1.15,2013-10-02 08:41:00,
2013-10-02 04:46:00,55.0,54.4,29.98,East,99,0.0,0.0,98,0.00,,,0.00,Wunderground v.1.15,2013-10-02 08:46:00,
2013-10-02 04:51:00,55.4,54.8,29.98,East,100,0.0,0.0,98,0.00,,,0.00,Wunderground v.1.15,2013-10-02 08:51:00,
2013-10-02 04:57:00,55.6,55.0,29.98,NE,54,0.0,1.0,98,0.00,,,0.00,Wunderground v.1.15,2013-10-02 08:57:00,
2013-10-02 05:02:00,55.8,55.2,29.98,NE,54,0.0,0.0,98,0.00,,,0.00,Wunderground v.1.15,2013-10-02 09:02:00,
2013-10-02 05:07:00,55.9,55.3,29.98,NE,53,0.0,0.0,98,0.00,,,0.00,Wunderground v.1.15,2013-10-02 09:07:00,
2013-10-02 05:12:00,55.9,55.3,29.98,NE,54,0.0,0.0,98,0.00,,,0.00,Wunderground v.1.15,2013-10-02 09:12:00,
2013-10-02 05:17:00,56.0,55.4,29.98,NE,54,0.0,0.0,98,0.00,,,0.00,Wunderground v.1.15,2013-10-02 09:17:00,
2013-10-02 05:23:00,56.1,55.5,29.98,NE,53,0.0,0.0,98,0.00,,,0.00,Wunderground v.1.15,2013-10-02 09:23:00,
2013-10-02 05:28:00,56.2,55.6,29.98,NE,54,0.0,0.0,98,0.00,,,0.00,Wunderground v.1.15,2013-10-02 09:28:00,
2013-10-02 05:33:00,56.2,55.6,29.98,NE,54,0.0,0.0,98,0.00,,,0.00,Wunderground v.1.15,2013-10-02 09:33:00,
2013-10-02 05:38:00,56.2,55.6,29.98,NE,54,0.0,0.0,98,0.00,,,0.00,Wunderground v.1.15,2013-10-02 09:38:00,
2013-10-02 05:43:00,56.1,55.5,29.98,ENE,57,0.0,1.0,98,0.00,,,0.00,Wunderground v.1.15,2013-10-02 09:43:00,
2013-10-02 05:48:00,56.1,55.5,29.98,ENE,57,0.0,1.0,98,0.00,,,0.00,Wunderground v.1.15,2013-10-02 09:48:00,
2013-10-02 05:54:00,56.0,55.4,29.98,ENE,57,0.0,0.0,98,0.00,,,0.00,Wunderground v.1.15,2013-10-02 09:54:00,
2013-10-02 05:59:00,56.0,55.4,29.98,ENE,57,0.0,0.0,98,0.00,,,0.00,Wunderground v.1.15,2013-10-02 09:59:00,
2013-10-02 06:04:00,56.2,55.6,29.98,ENE,57,0.0,0.0,98,0.00,,,0.00,Wunderground v.1.15,2013-10-02 10:04:00,
2013-10-02 06:10:00,56.2,55.6,29.98,ENE,69,0.0,0.0,98,0.00,,,0.00,Wunderground v.1.15,2013-10-02 10:10:00,
2013-10-02 06:15:00,56.2,55.6,29.99,ENE,70,0.0,0.0,98,0.00,,,0.00,Wunderground v.1.15,2013-10-02 10:15:00,
2013-10-02 06:21:00,56.2,55.6,29.98,ENE,69,0.0,0.0,98,0.00,,,0.00,Wunderground v.1.15,2013-10-02 10:21:00,
2013-10-02 06:26:00,56.3,55.7,29.98,ENE,69,0.0,0.0,98,0.00,,,0.00,Wunderground v.1.15,2013-10-02 10:26:00,
2013-10-02 06:31:00,56.4,55.8,29.98,East,89,0.0,0.0,98,0.00,,,0.00,Wunderground v.1.15,2013-10-02 10:31:00,
2013-10-02 06:36:00,56.6,56.0,29.98,East,88,0.0,1.0,98,0.00,,,0.00,Wunderground v.1.15,2013-10-02 10:36:00,
2013-10-02 06:41:00,56.7,56.1,29.98,East,89,0.0,0.0,98,0.00,,,0.00,Wunderground v.1.15,2013-10-02 10:41:00,
2013-10-02 06:47:00,56.7,56.1,29.98,East,82,0.0,1.0,98,0.00,,,0.00,Wunderground v.1.15,2013-10-02 10:47:00,
2013-10-02 06:52:00,56.7,56.1,29.98,East,80,0.0,1.0,98,0.00,,,0.00,Wunderground v.1.15,2013-10-02 10:52:00,
2013-10-02 06:57:00,56.7,56.1,29.98,ENE,78,0.0,1.0,98,0.00,,,0.00,Wunderground v.1.15,2013-10-02 10:57:00,
2013-10-02 07:02:00,56.7,56.1,29.98,ENE,75,0.0,1.0,98,0.00,,,0.00,Wunderground v.1.15,2013-10-02 11:02:00,
2013-10-02 07:07:00,56.8,56.2,29.99,ENE,75,0.0,1.0,98,0.00,,,0.00,Wunderground v.1.15,2013-10-02 11:07:00,
2013-10-02 07:12:00,56.8,56.2,29.99,ENE,78,0.0,0.0,98,0.00,,,0.00,Wunderground v.1.15,2013-10-02 11:12:00,
2013-10-02 07:17:00,56.8,56.2,29.99,East,98,0.0,2.0,98,0.00,,,0.00,Wunderground v.1.15,2013-10-02 11:17:00,
2013-10-02 07:22:00,57.0,56.4,29.99,East,98,0.0,1.0,98,0.00,,,0.00,Wunderground v.1.15,2013-10-02 11:22:00,
2013-10-02 07:27:00,57.1,56.5,30.00,East,98,0.0,1.0,98,0.00,,,0.00,Wunderground v.1.15,2013-10-02 11:27:00,
2013-10-02 07:33:00,57.1,56.8,30.00,East,98,0.0,0.0,99,0.00,,,0.00,Wunderground v.1.15,2013-10-02 11:33:00,
2013-10-02 07:38:00,57.1,56.5,30.00,East,98,0.0,0.0,98,0.00,,,0.00,Wunderground v.1.15,2013-10-02 11:38:00,
2013-10-02 07:43:00,57.1,56.5,30.00,East,99,0.0,0.0,98,0.00,,,0.00,Wunderground v.1.15,2013-10-02 11:43:00,
2013-10-02 07:48:00,57.2,56.6,30.00,East,98,0.0,0.0,98,0.00,,,0.00,Wunderground v.1.15,2013-10-02 11:48:00,
2013-10-02 07:54:00,57.2,56.6,30.00,East,98,0.0,0.0,98,0.00,,,0.00,Wunderground v.1.15,2013-10-02 11:54:00,
2013-10-02 07:59:00,57.2,56.6,30.01,East,98,0.0,0.0,98,0.00,,,0.00,Wunderground v.1.15,2013-10-02 11:59:00,
2013-10-02 08:04:00,57.3,57.0,30.00,East,98,0.0,0.0,99,0.00,,,0.00,Wunderground v.1.15,2013-10-02 12:04:00,
2013-10-02 08:09:00,57.5,57.2,30.00,East,98,0.0,0.0,99,0.00,,,0.00,Wunderground v.1.15,2013-10-02 12:09:00,
2013-10-02 08:15:00,57.6,57.3,30.01,East,98,0.0,0.0,99,0.00,,,0.00,Wunderground v.1.15,2013-10-02 12:15:00,
2013-10-02 08:20:00,57.8,57.5,30.01,East,98,0.0,0.0,99,0.00,,,0.00,Wunderground v.1.15,2013-10-02 12:20:00,
2013-10-02 08:25:00,57.9,57.6,30.01,East,94,0.0,1.0,99,0.00,,,0.00,Wunderground v.1.15,2013-10-02 12:25:00,
2013-10-02 08:30:00,58.0,57.7,30.01,East,96,0.0,0.0,99,0.00,,,0.00,Wunderground v.1.15,2013-10-02 12:30:00,
2013-10-02 08:35:00,58.2,57.9,30.01,East,96,0.0,0.0,99,0.00,,,0.00,Wunderground v.1.15,2013-10-02 12:35:00,
2013-10-02 08:40:00,58.4,58.1,30.01,East,96,0.0,0.0,99,0.00,,,0.00,Wunderground v.1.15,2013-10-02 12:40:00,
2013-10-02 08:45:00,58.6,58.3,30.02,East,96,0.0,1.0,99,0.00,,,0.00,Wunderground v.1.15,2013-10-02 12:45:00,
2013-10-02 08:51:00,58.9,58.6,30.02,East,96,0.0,1.0,99,0.00,,,0.00,Wunderground v.1.15,2013-10-02 12:51:00,
2013-10-02 08:56:00,59.2,58.9,30.02,ESE,103,0.0,1.0,99,0.00,,,0.00,Wunderground v.1.15,2013-10-02 12:56:00,
2013-10-02 09:01:00,59.7,59.4,30.02,ESE,103,0.0,1.0,99,0.00,,,0.00,Wunderground v.1.15,2013-10-02 13:01:00,
2013-10-02 09:06:00,60.2,59.9,30.02,East,84,0.0,1.0,99,0.00,,,0.00,Wunderground v.1.15,2013-10-02 13:06:00,
2013-10-02 09:12:00,60.7,60.4,30.02,SSE,150,0.0,1.0,99,0.00,,,0.00,Wunderground v.1.15,2013-10-02 13:12:00,
2013-10-02 09:17:00,61.1,60.8,30.02,SE,138,0.0,1.0,99,0.00,,,0.00,Wunderground v.1.15,2013-10-02 13:17:00,
2013-10-02 09:22:00,61.4,61.1,30.02,SSW,203,0.0,1.0,99,0.00,,,0.00,Wunderground v.1.15,2013-10-02 13:22:00,
2013-10-02 09:27:00,61.9,61.6,30.02,SSW,211,0.0,1.0,99,0.00,,,0.00,Wunderground v.1.15,2013-10-02 13:27:00,
2013-10-02 09:32:00,62.3,62.0,30.02,SW,222,0.0,1.0,99,0.00,,,0.00,Wunderground v.1.15,2013-10-02 13:32:00,
2013-10-02 09:37:00,62.7,62.4,30.02,SW,236,1.0,2.0,99,0.00,,,0.00,Wunderground v.1.15,2013-10-02 13:37:00,
2013-10-02 09:42:00,63.0,62.7,30.02,SSW,208,1.0,2.0,99,0.00,,,0.00,Wunderground v.1.15,2013-10-02 13:42:00,
2013-10-02 09:47:00,63.3,62.4,30.02,WSW,239,1.0,3.0,97,0.00,,,0.00,Wunderground v.1.15,2013-10-02 13:47:00,
2013-10-02 09:52:00,63.7,62.5,30.02,WSW,240,1.0,1.0,96,0.00,,,0.00,Wunderground v.1.15,2013-10-02 13:52:00,
2013-10-02 09:58:00,64.1,62.6,30.03,SW,229,1.0,3.0,95,0.00,,,0.00,Wunderground v.1.15,2013-10-02 13:58:00,
2013-10-02 10:03:00,64.4,62.9,30.03,SW,218,1.0,2.0,95,0.00,,,0.00,Wunderground v.1.15,2013-10-02 14:03:00,
2013-10-02 10:08:00,64.6,62.8,30.03,SSW,198,1.0,2.0,94,0.00,,,0.00,Wunderground v.1.15,2013-10-02 14:08:00,
2013-10-02 10:13:00,64.9,62.8,30.03,East,94,1.0,1.0,93,0.00,,,0.00,Wunderground v.1.15,2013-10-02 14:13:00,
2013-10-02 10:19:00,65.1,63.0,30.03,WSW,245,1.0,2.0,93,0.00,,,0.00,Wunderground v.1.15,2013-10-02 14:19:00,
2013-10-02 10:24:00,65.3,62.9,30.03,SW,222,0.0,1.0,92,0.00,,,0.00,Wunderground v.1.15,2013-10-02 14:24:00,
2013-10-02 10:29:00,65.6,63.2,30.03,SW,219,0.0,2.0,92,0.00,,,0.00,Wunderground v.1.15,2013-10-02 14:29:00,
2013-10-02 10:34:00,65.8,63.1,30.03,SW,236,0.0,1.0,91,0.00,,,0.00,Wunderground v.1.15,2013-10-02 14:34:00,
2013-10-02 10:40:00,66.0,63.3,30.03,SW,227,0.0,2.0,91,0.00,,,0.00,Wunderground v.1.15,2013-10-02 14:40:00,
2013-10-02 10:45:00,66.2,63.5,30.03,NNE,30,0.0,2.0,91,0.00,,,0.00,Wunderground v.1.15,2013-10-02 14:45:00,
2013-10-02 10:50:00,66.3,63.6,30.03,WSW,240,1.0,1.0,91,0.00,,,0.00,Wunderground v.1.15,2013-10-02 14:50:00,
2013-10-02 10:56:00,66.4,63.7,30.03,WSW,257,1.0,1.0,91,0.00,,,0.00,Wunderground v.1.15,2013-10-02 14:56:00,
2013-10-02 11:01:00,66.5,63.5,30.03,SW,226,1.0,4.0,90,0.00,,,0.00,Wunderground v.1.15,2013-10-02 15:01:00,
2013-10-02 11:07:00,66.6,63.6,30.03,WNW,295,1.0,4.0,90,0.00,,,0.00,Wunderground v.1.15,2013-10-02 15:07:00,
2013-10-02 11:12:00,66.8,63.5,30.03,West,259,1.0,1.0,89,0.00,,,0.00,Wunderground v.1.15,2013-10-02 15:12:00,
2013-10-02 11:17:00,66.9,63.6,30.03,SW,225,1.0,3.0,89,0.00,,,0.00,Wunderground v.1.15,2013-10-02 15:17:00,
2013-10-02 11:22:00,66.9,63.6,30.03,SE,127,1.0,1.0,89,0.00,,,0.00,Wunderground v.1.15,2013-10-02 15:22:00,
2013-10-02 11:27:00,67.1,63.7,30.03,WSW,246,1.0,3.0,89,0.00,,,0.00,Wunderground v.1.15,2013-10-02 15:27:00,
2013-10-02 11:33:00,67.4,63.7,30.03,West,277,0.0,1.0,88,0.00,,,0.00,Wunderground v.1.15,2013-10-02 15:33:00,
2013-10-02 11:38:00,67.4,63.4,30.03,West,262,1.0,3.0,87,0.00,,,0.00,Wunderground v.1.15,2013-10-02 15:38:00,
2013-10-02 11:43:00,67.4,63.7,30.03,West,259,1.0,1.0,88,0.00,,,0.00,Wunderground v.1.15,2013-10-02 15:43:00,
2013-10-02 11:48:00,67.4,63.7,30.04,WSW,239,1.0,2.0,88,0.00,,,0.00,Wunderground v.1.15,2013-10-02 15:48:00,
2013-10-02 11:54:00,67.6,63.9,30.04,WNW,284,1.0,3.0,88,0.00,,,0.00,Wunderground v.1.15,2013-10-02 15:54:00,
2013-10-02 11:59:00,67.8,63.8,30.04,WSW,248,1.0,3.0,87,0.00,,,0.00,Wunderground v.1.15,2013-10-02 15:59:00,
2013-10-02 12:04:00,67.9,63.9,30.04,WNW,290,2.0,4.0,87,0.00,,,0.00,Wunderground v.1.15,2013-10-02 16:04:00,
2013-10-02 12:09:00,68.2,64.2,30.03,SW,222,2.0,4.0,87,0.00,,,0.00,Wunderground v.1.15,2013-10-02 16:09:00,
2013-10-02 12:15:00,68.5,64.1,30.03,WNW,288,0.0,1.0,86,0.00,,,0.00,Wunderground v.1.15,2013-10-02 16:15:00,
2013-10-02 12:20:00,69.0,64.6,30.03,West,260,0.0,1.0,86,0.00,,,0.00,Wunderground v.1.15,2013-10-02 16:20:00,
2013-10-02 12:25:00,69.4,65.0,30.03,SSW,197,1.0,2.0,86,0.00,,,0.00,Wunderground v.1.15,2013-10-02 16:25:00,
2013-10-02 12:30:00,69.7,64.6,30.03,SW,233,1.0,2.0,84,0.00,,,0.00,Wunderground v.1.15,2013-10-02 16:30:00,
2013-10-02 12:35:00,70.1,64.7,30.03,SSE,165,1.0,3.0,83,0.00,,,0.00,Wunderground v.1.15,2013-10-02 16:35:00,
2013-10-02 12:40:00,70.3,64.9,30.03,SW,232,1.0,1.0,83,0.00,,,0.00,Wunderground v.1.15,2013-10-02 16:40:00,
2013-10-02 12:45:00,70.9,65.1,30.03,SW,217,1.0,2.0,82,0.00,,,0.00,Wunderground v.1.15,2013-10-02 16:45:00,
2013-10-02 12:50:00,71.3,65.2,30.03,WSW,248,1.0,2.0,81,0.00,,,0.00,Wunderground v.1.15,2013-10-02 16:50:00,
2013-10-02 12:55:00,71.1,64.6,30.03,SW,222,2.0,4.0,80,0.00,,,0.00,Wunderground v.1.15,2013-10-02 16:55:00,
2013-10-02 13:01:00,71.0,64.9,30.03,SE,127,2.0,2.0,81,0.00,,,0.00,Wunderground v.1.15,2013-10-02 17:01:00,
2013-10-02 13:06:00,71.8,65.3,30.03,West,280,1.0,2.0,80,0.00,,,0.00,Wunderground v.1.15,2013-10-02 17:06:00,
2013-10-02 13:12:00,72.6,65.7,30.03,SSW,199,1.0,3.0,79,0.00,,,0.00,Wunderground v.1.15,2013-10-02 17:12:00,
2013-10-02 13:17:00,72.7,65.1,30.03,WSW,250,2.0,5.0,77,0.00,,,0.00,Wunderground v.1.15,2013-10-02 17:17:00,
2013-10-02 13:23:00,72.5,65.6,30.03,SSE,159,1.0,2.0,79,0.00,,,0.00,Wunderground v.1.15,2013-10-02 17:23:00,
2013-10-02 13:28:00,72.7,65.4,30.02,WSW,239,1.0,2.0,78,0.00,,,0.00,Wunderground v.1.15,2013-10-02 17:28:00,
2013-10-02 13:33:00,72.7,65.8,30.02,West,273,1.0,2.0,79,0.00,,,0.00,Wunderground v.1.15,2013-10-02 17:33:00,
2013-10-02 13:38:00,73.1,65.8,30.02,WSW,238,1.0,2.0,78,0.00,,,0.00,Wunderground v.1.15,2013-10-02 17:38:00,
2013-10-02 13:43:00,73.4,65.4,30.02,WSW,243,1.0,4.0,76,0.00,,,0.00,Wunderground v.1.15,2013-10-02 17:43:00,
2013-10-02 13:49:00,73.8,65.8,30.02,SW,222,2.0,5.0,76,0.00,,,0.00,Wunderground v.1.15,2013-10-02 17:49:00,
2013-10-02 13:54:00,73.9,65.5,30.01,West,265,2.0,3.0,75,0.00,,,0.00,Wunderground v.1.15,2013-10-02 17:54:00,
2013-10-02 13:59:00,74.3,65.5,30.01,WSW,243,2.0,4.0,74,0.00,,,0.00,Wunderground v.1.15,2013-10-02 17:59:00,
2013-10-02 14:04:00,74.3,66.2,30.01,SW,224,2.0,3.0,76,0.00,,,0.00,Wunderground v.1.15,2013-10-02 18:04:00,
2013-10-02 14:09:00,74.4,66.0,30.01,WSW,253,2.0,3.0,75,0.00,,,0.00,Wunderground v.1.15,2013-10-02 18:09:00,
2013-10-02 14:14:00,74.6,65.0,30.01,WSW,240,2.0,4.0,72,0.00,,,0.00,Wunderground v.1.15,2013-10-02 18:14:00,
2013-10-02 14:19:00,74.8,65.2,30.01,SSW,200,2.0,4.0,72,0.00,,,0.00,Wunderground v.1.15,2013-10-02 18:19:00,
2013-10-02 14:25:00,75.3,65.2,30.01,SW,236,2.0,4.0,71,0.00,,,0.00,Wunderground v.1.15,2013-10-02 18:25:00,
2013-10-02 14:30:00,75.4,64.5,30.01,SW,229,2.0,2.0,69,0.00,,,0.00,Wunderground v.1.15,2013-10-02 18:30:00,
2013-10-02 14:35:00,75.6,65.5,30.01,SW,233,2.0,4.0,71,0.00,,,0.00,Wunderground v.1.15,2013-10-02 18:35:00,
2013-10-02 14:40:00,75.3,64.4,30.01,SW,235,2.0,2.0,69,0.00,,,0.00,Wunderground v.1.15,2013-10-02 18:40:00,
2013-10-02 14:45:00,75.3,63.6,30.01,WSW,245,2.0,4.0,67,0.00,,,0.00,Wunderground v.1.15,2013-10-02 18:45:00,
2013-10-02 14:51:00,75.4,64.1,30.01,West,263,3.0,3.0,68,0.00,,,0.00,Wunderground v.1.15,2013-10-02 18:51:00,
2013-10-02 14:56:00,75.6,64.3,30.01,SW,232,2.0,4.0,68,0.00,,,0.00,Wunderground v.1.15,2013-10-02 18:56:00,
2013-10-02 15:01:00,75.8,63.6,30.01,WNW,298,2.0,3.0,66,0.00,,,0.00,Wunderground v.1.15,2013-10-02 19:01:00,
2013-10-02 15:06:00,75.7,64.0,30.01,SW,226,2.0,7.0,67,0.00,,,0.00,Wunderground v.1.15,2013-10-02 19:06:00,
2013-10-02 15:12:00,75.3,66.0,30.01,WSW,255,3.0,3.0,73,0.00,,,0.00,Wunderground v.1.15,2013-10-02 19:12:00,
2013-10-02 15:17:00,74.8,66.3,30.01,WNW,300,3.0,3.0,75,0.00,,,0.00,Wunderground v.1.15,2013-10-02 19:17:00,
2013-10-02 15:22:00,73.7,66.0,30.01,ESE,112,2.0,5.0,77,0.00,,,0.00,Wunderground v.1.15,2013-10-02 19:22:00,
2013-10-02 15:27:00,73.1,65.8,30.01,NW,305,3.0,5.0,78,0.00,,,0.00,Wunderground v.1.15,2013-10-02 19:27:00,
2013-10-02 15:32:00,72.9,66.4,30.02,WNW,301,3.0,3.0,80,0.00,,,0.00,Wunderground v.1.15,2013-10-02 19:32:00,
2013-10-02 15:38:00,72.8,66.3,30.02,NW,307,2.0,4.0,80,0.00,,,0.00,Wunderground v.1.15,2013-10-02 19:38:00,
2013-10-02 15:43:00,72.6,66.1,30.02,NW,319,2.0,3.0,80,0.00,,,0.00,Wunderground v.1.15,2013-10-02 19:43:00,
2013-10-02 15:48:00,72.0,65.8,30.02,NW,315,3.0,4.0,81,0.00,,,0.00,Wunderground v.1.15,2013-10-02 19:48:00,
2013-10-02 15:53:00,71.8,65.7,30.02,NE,38,2.0,3.0,81,0.00,,,0.00,Wunderground v.1.15,2013-10-02 19:53:00,
2013-10-02 15:59:00,71.9,65.8,30.02,West,264,2.0,6.0,81,0.00,,,0.00,Wunderground v.1.15,2013-10-02 19:59:00,
2013-10-02 16:04:00,71.9,65.8,30.02,NNE,24,2.0,4.0,81,0.00,,,0.00,Wunderground v.1.15,2013-10-02 20:04:00,
2013-10-02 16:09:00,71.9,65.8,30.02,WNW,293,2.0,4.0,81,0.00,,,0.00,Wunderground v.1.15,2013-10-02 20:09:00,
2013-10-02 16:15:00,71.8,65.7,30.02,WNW,296,2.0,3.0,81,0.00,,,0.00,Wunderground v.1.15,2013-10-02 20:15:00,
2013-10-02 16:20:00,71.8,65.3,30.02,West,266,2.0,3.0,80,0.00,,,0.00,Wunderground v.1.15,2013-10-02 20:20:00,
2013-10-02 16:26:00,71.8,65.3,30.02,NW,315,2.0,3.0,80,0.00,,,0.00,Wunderground v.1.15,2013-10-02 20:26:00,
2013-10-02 16:31:00,71.4,64.9,30.02,WSW,238,2.0,3.0,80,0.00,,,0.00,Wunderground v.1.15,2013-10-02 20:31:00,
2013-10-02 16:36:00,71.3,64.8,30.02,NW,313,2.0,3.0,80,0.00,,,0.00,Wunderground v.1.15,2013-10-02 20:36:00,
2013-10-02 16:41:00,71.3,64.8,30.02,WNW,302,2.0,2.0,80,0.00,,,0.00,Wunderground v.1.15,2013-10-02 20:41:00,
2013-10-02 16:47:00,71.3,64.4,30.02,West,269,2.0,4.0,79,0.00,,,0.00,Wunderground v.1.15,2013-10-02 20:47:00,
2013-10-02 16:52:00,71.1,63.9,30.02,NW,308,2.0,5.0,78,0.00,,,0.00,Wunderground v.1.15,2013-10-02 20:52:00,
2013-10-02 16:57:00,71.0,63.8,30.02,WNW,290,2.0,5.0,78,0.00,,,0.00,Wunderground v.1.15,2013-10-02 20:57:00,
2013-10-02 17:02:00,71.0,63.8,30.02,NW,314,2.0,2.0,78,0.00,,,0.00,Wunderground v.1.15,2013-10-02 21:02:00,
2013-10-02 17:08:00,70.8,62.9,30.02,West,280,2.0,3.0,76,0.00,,,0.00,Wunderground v.1.15,2013-10-02 21:08:00,
2013-10-02 17:13:00,70.5,61.8,30.02,West,278,3.0,4.0,74,0.00,,,0.00,Wunderground v.1.15,2013-10-02 21:13:00,
2013-10-02 17:18:00,70.3,62.0,30.02,WSW,240,3.0,4.0,75,0.00,,,0.00,Wunderground v.1.15,2013-10-02 21:18:00,
2013-10-02 17:23:00,70.3,62.0,30.02,NW,304,2.0,3.0,75,0.00,,,0.00,Wunderground v.1.15,2013-10-02 21:23:00,
2013-10-02 17:28:00,70.2,61.9,30.02,WNW,302,2.0,3.0,75,0.00,,,0.00,Wunderground v.1.15,2013-10-02 21:28:00,
2013-10-02 17:34:00,70.0,59.8,30.02,WSW,249,2.0,6.0,70,0.00,,,0.00,Wunderground v.1.15,2013-10-02 21:34:00,
2013-10-02 17:39:00,69.7,58.7,30.02,WNW,287,3.0,6.0,68,0.00,,,0.00,Wunderground v.1.15,2013-10-02 21:39:00,
2013-10-02 17:44:00,69.5,58.5,30.02,WNW,290,3.0,3.0,68,0.00,,,0.00,Wunderground v.1.15,2013-10-02 21:44:00,
2013-10-02 17:49:00,69.4,58.4,30.02,WSW,248,1.0,3.0,68,0.00,,,0.00,Wunderground v.1.15,2013-10-02 21:49:00,
2013-10-02 17:54:00,69.3,58.7,30.02,West,271,1.0,2.0,69,0.00,,,0.00,Wunderground v.1.15,2013-10-02 21:54:00,
2013-10-02 17:59:00,69.2,59.0,30.02,WNW,291,1.0,2.0,70,0.00,,,0.00,Wunderground v.1.15,2013-10-02 21:59:00,
2013-10-02 18:05:00,68.9,58.3,30.03,SW,227,1.0,3.0,69,0.00,,,0.00,Wunderground v.1.15,2013-10-02 22:05:00,
2013-10-02 18:10:00,68.7,57.3,30.03,WSW,256,1.0,1.0,67,0.00,,,0.00,Wunderground v.1.15,2013-10-02 22:10:00,
2013-10-02 18:15:00,68.4,57.0,30.03,WSW,257,1.0,1.0,67,0.00,,,0.00,Wunderground v.1.15,2013-10-02 22:15:00,
2013-10-02 18:20:00,68.2,56.8,30.03,WSW,250,1.0,1.0,67,0.00,,,0.00,Wunderground v.1.15,2013-10-02 22:20:00,
2013-10-02 18:26:00,67.9,57.4,30.03,SW,229,0.0,1.0,69,0.00,,,0.00,Wunderground v.1.15,2013-10-02 22:26:00,
2013-10-02 18:31:00,67.6,58.2,30.03,SW,229,0.0,1.0,72,0.00,,,0.00,Wunderground v.1.15,2013-10-02 22:31:00,
2013-10-02 18:36:00,66.9,58.0,30.03,SW,229,0.0,1.0,73,0.00,,,0.00,Wunderground v.1.15,2013-10-02 22:36:00,
2013-10-02 18:42:00,66.2,58.4,30.03,SW,229,0.0,1.0,76,0.00,,,0.00,Wunderground v.1.15,2013-10-02 22:42:00,
2013-10-02 18:47:00,65.5,58.5,30.03,SW,229,0.0,1.0,78,0.00,,,0.00,Wunderground v.1.15,2013-10-02 22:47:00,
2013-10-02 18:52:00,64.8,58.1,30.03,SW,229,0.0,1.0,79,0.00,,,0.00,Wunderground v.1.15,2013-10-02 22:52:00,
2013-10-02 18:58:00,64.0,58.1,30.03,SW,229,0.0,1.0,81,0.00,,,0.00,Wunderground v.1.15,2013-10-02 22:58:00,
2013-10-02 19:03:00,63.4,57.8,30.03,SW,229,0.0,1.0,82,0.00,,,0.00,Wunderground v.1.15,2013-10-02 23:03:00,
2013-10-02 19:08:00,62.8,57.6,30.04,SW,229,0.0,1.0,83,0.00,,,0.00,Wunderground v.1.15,2013-10-02 23:08:00,
2013-10-02 19:13:00,62.2,56.6,30.04,SW,229,0.0,1.0,82,0.00,,,0.00,Wunderground v.1.15,2013-10-02 23:13:00,
2013-10-02 19:18:00,61.6,56.7,30.04,SW,229,0.0,1.0,84,0.00,,,0.00,Wunderground v.1.15,2013-10-02 23:18:00,
2013-10-02 19:24:00,60.7,56.2,30.04,SW,229,0.0,1.0,85,0.00,,,0.00,Wunderground v.1.15,2013-10-02 23:24:00,
2013-10-02 19:30:00,60.2,56.0,30.04,SW,229,0.0,1.0,86,0.00,,,0.00,Wunderground v.1.15,2013-10-02 23:30:00,
2013-10-02 19:35:00,59.8,55.9,30.04,SW,229,0.0,1.0,87,0.00,,,0.00,Wunderground v.1.15,2013-10-02 23:35:00,
2013-10-02 19:40:00,59.4,55.5,30.04,SW,229,0.0,1.0,87,0.00,,,0.00,Wunderground v.1.15,2013-10-02 23:40:00,
2013-10-02 19:46:00,59.0,55.4,30.04,SW,229,0.0,1.0,88,0.00,,,0.00,Wunderground v.1.15,2013-10-02 23:46:00,
2013-10-02 19:49:00,58.8,55.3,30.04,SW,229,0.0,1.0,88,0.00,,,0.00,Wunderground v.1.15,2013-10-02 23:49:00,
2013-10-02 19:55:00,58.4,55.2,30.04,SW,229,0.0,1.0,89,0.00,,,0.00,Wunderground v.1.15,2013-10-02 23:55:00,
2013-10-02 20:00:00,58.1,55.2,30.04,SW,229,0.0,1.0,90,0.00,,,0.00,Wunderground v.1.15,2013-10-03 00:00:00,
2013-10-02 20:05:00,57.7,54.8,30.04,SW,229,0.0,1.0,90,0.00,,,0.00,Wunderground v.1.15,2013-10-03 00:05:00,
2013-10-02 20:11:00,57.4,54.8,30.04,SW,229,0.0,1.0,91,0.00,,,0.00,Wunderground v.1.15,2013-10-03 00:11:00,
2013-10-02 20:16:00,57.1,54.5,30.04,SW,229,0.0,1.0,91,0.00,,,0.00,Wunderground v.1.15,2013-10-03 00:16:00,
2013-10-02 20:21:00,56.8,54.5,30.04,SW,229,0.0,1.0,92,0.00,,,0.00,Wunderground v.1.15,2013-10-03 00:21:00,
2013-10-02 20:26:00,56.5,54.2,30.05,SW,229,0.0,1.0,92,0.00,,,0.00,Wunderground v.1.15,2013-10-03 00:26:00,
2013-10-02 20:32:00,56.3,54.3,30.05,SW,229,0.0,1.0,93,0.00,,,0.00,Wunderground v.1.15,2013-10-03 00:32:00,
2013-10-02 20:37:00,56.1,54.1,30.05,SW,229,0.0,1.0,93,0.00,,,0.00,Wunderground v.1.15,2013-10-03 00:37:00,
2013-10-02 20:42:00,55.8,53.8,30.05,SW,229,0.0,1.0,93,0.00,,,0.00,Wunderground v.1.15,2013-10-03 00:42:00,
2013-10-02 20:47:00,55.6,53.6,30.05,SW,229,0.0,1.0,93,0.00,,,0.00,Wunderground v.1.15,2013-10-03 00:47:00,
2013-10-02 20:52:00,55.5,53.8,30.05,SW,229,0.0,1.0,94,0.00,,,0.00,Wunderground v.1.15,2013-10-03 00:52:00,
2013-10-02 20:58:00,55.3,53.6,30.05,SW,229,0.0,1.0,94,0.00,,,0.00,Wunderground v.1.15,2013-10-03 00:58:00,
2013-10-02 21:03:00,55.1,53.4,30.05,SW,229,0.0,1.0,94,0.00,,,0.00,Wunderground v.1.15,2013-10-03 01:03:00,
2013-10-02 21:08:00,54.9,53.2,30.05,SW,229,0.0,1.0,94,0.00,,,0.00,Wunderground v.1.15,2013-10-03 01:08:00,
2013-10-02 21:13:00,54.7,53.0,30.05,SW,229,0.0,1.0,94,0.00,,,0.00,Wunderground v.1.15,2013-10-03 01:13:00,
2013-10-02 21:18:00,54.5,53.1,30.06,SW,229,0.0,1.0,95,0.00,,,0.00,Wunderground v.1.15,2013-10-03 01:18:00,
2013-10-02 21:23:00,54.3,52.9,30.06,SW,229,0.0,1.0,95,0.00,,,0.00,Wunderground v.1.15,2013-10-03 01:23:00,
2013-10-02 21:29:00,54.1,52.7,30.06,SW,230,0.0,1.0,95,0.00,,,0.00,Wunderground v.1.15,2013-10-03 01:29:00,
2013-10-02 21:34:00,53.9,52.5,30.06,SW,229,0.0,1.0,95,0.00,,,0.00,Wunderground v.1.15,2013-10-03 01:34:00,
2013-10-02 21:39:00,53.7,52.3,30.06,SW,229,0.0,1.0,95,0.00,,,0.00,Wunderground v.1.15,2013-10-03 01:39:00,
2013-10-02 21:45:00,53.4,52.0,30.06,SW,229,0.0,1.0,95,0.00,,,0.00,Wunderground v.1.15,2013-10-03 01:45:00,
2013-10-02 21:50:00,53.2,51.8,30.06,SW,229,0.0,1.0,95,0.00,,,0.00,Wunderground v.1.15,2013-10-03 01:50:00,
2013-10-02 21:55:00,53.0,51.6,30.06,SW,229,0.0,1.0,95,0.00,,,0.00,Wunderground v.1.15,2013-10-03 01:55:00,
2013-10-02 22:00:00,52.9,51.5,30.06,SW,229,0.0,1.0,95,0.00,,,0.00,Wunderground v.1.15,2013-10-03 02:00:00,
2013-10-02 22:05:00,52.8,51.4,30.06,SW,229,0.0,1.0,95,0.00,,,0.00,Wunderground v.1.15,2013-10-03 02:05:00,
2013-10-02 22:10:00,52.6,51.2,30.06,SW,229,0.0,1.0,95,0.00,,,0.00,Wunderground v.1.15,2013-10-03 02:10:00,
2013-10-02 22:15:00,52.4,51.0,30.06,SW,230,0.0,1.0,95,0.00,,,0.00,Wunderground v.1.15,2013-10-03 02:15:00,
2013-10-02 22:20:00,52.2,50.8,30.06,SW,229,0.0,1.0,95,0.00,,,0.00,Wunderground v.1.15,2013-10-03 02:20:00,
2013-10-02 22:26:00,52.0,50.9,30.06,SW,230,0.0,1.0,96,0.00,,,0.00,Wunderground v.1.15,2013-10-03 02:26:00,
2013-10-02 22:31:00,51.8,50.4,30.07,SW,229,0.0,1.0,95,0.00,,,0.00,Wunderground v.1.15,2013-10-03 02:31:00,
2013-10-02 22:36:00,51.7,50.6,30.07,SW,229,0.0,1.0,96,0.00,,,0.00,Wunderground v.1.15,2013-10-03 02:36:00,
2013-10-02 22:41:00,51.6,50.5,30.07,SW,229,0.0,1.0,96,0.00,,,0.00,Wunderground v.1.15,2013-10-03 02:41:00,
2013-10-02 22:47:00,51.6,50.5,30.07,SW,230,0.0,1.0,96,0.00,,,0.00,Wunderground v.1.15,2013-10-03 02:47:00,
2013-10-02 22:52:00,51.5,50.4,30.07,SW,229,0.0,1.0,96,0.00,,,0.00,Wunderground v.1.15,2013-10-03 02:52:00,
2013-10-02 22:57:00,51.3,50.2,30.07,SW,229,0.0,1.0,96,0.00,,,0.00,Wunderground v.1.15,2013-10-03 02:57:00,
2013-10-02 23:02:00,51.3,50.2,30.07,SW,229,0.0,1.0,96,0.00,,,0.00,Wunderground v.1.15,2013-10-03 03:02:00,
2013-10-02 23:08:00,51.1,50.0,30.08,SW,229,0.0,1.0,96,0.00,,,0.00,Wunderground v.1.15,2013-10-03 03:08:00,
2013-10-02 23:13:00,51.0,49.9,30.08,SW,230,0.0,1.0,96,0.00,,,0.00,Wunderground v.1.15,2013-10-03 03:13:00,
2013-10-02 23:19:00,50.8,49.7,30.08,SW,230,0.0,1.0,96,0.00,,,0.00,Wunderground v.1.15,2013-10-03 03:19:00,
2013-10-02 23:24:00,50.7,49.6,30.08,SW,229,0.0,1.0,96,0.00,,,0.00,Wunderground v.1.15,2013-10-03 03:24:00,
2013-10-02 23:29:00,50.6,49.5,30.08,SW,229,0.0,1.0,96,0.00,,,0.00,Wunderground v.1.15,2013-10-03 03:29:00,
2013-10-02 23:35:00,50.5,49.4,30.08,SW,229,0.0,1.0,96,0.00,,,0.00,Wunderground v.1.15,2013-10-03 03:35:00,
2013-10-02 23:40:00,50.5,49.4,30.08,SW,229,0.0,1.0,96,0.00,,,0.00,Wunderground v.1.15,2013-10-03 03:40:00,
2013-10-02 23:46:00,50.3,49.2,30.08,SW,230,0.0,1.0,96,0.00,,,0.00,Wunderground v.1.15,2013-10-03 03:46:00,
2013-10-02 23:51:00,50.2,49.1,30.08,SW,229,0.0,1.0,96,0.00,,,0.00,Wunderground v.1.15,2013-10-03 03:51:00,
2013-10-02 23:56:00,50.1,49.0,30.08,SW,229,0.0,1.0,96,0.00,,,0.00,Wunderground v.1.15,2013-10-03 03:56:00,